sensor_id;sensor_type;location;lat;lon;timestamp;temperature;humidity
44447;DHT22;30152;52.066;5.358;2023-09-07T07:02:14;15.30;99.90
44447;DHT22;30152;52.066;5.358;2023-09-07T07:11:59;16.10;99.90
44447;DHT22;30152;52.066;5.358;2023-09-07T07:16:54;16.30;99.90
44447;DHT22;30152;52.066;5.358;2023-09-07T07:21:45;16.90;99.90
44447;DHT22;30152;52.066;5.358;2023-09-07T07:24:11;16.40;99.90
44447;DHT22;30152;52.066;5.358;2023-09-07T07:29:02;17.40;99.90
44447;DHT22;30152;52.066;5.358;2023-09-07T07:31:28;17.00;99.90
44447;DHT22;30152;52.066;5.358;2023-09-07T07:33:55;17.20;99.90
44447;DHT22;30152;52.066;5.358;2023-09-07T07:36:21;17.40;99.90
44447;DHT22;30152;52.066;5.358;2023-09-07T07:38:46;17.10;99.90
44447;DHT22;30152;52.066;5.358;2023-09-07T07:41:12;17.50;99.90
44447;DHT22;30152;52.066;5.358;2023-09-07T07:46:03;18.80;99.90
44447;DHT22;30152;52.066;5.358;2023-09-07T07:50:55;18.60;99.90
44447;DHT22;30152;52.066;5.358;2023-09-07T07:55:46;18.50;99.90
44447;DHT22;30152;52.066;5.358;2023-09-07T07:58:14;19.60;99.90
44447;DHT22;30152;52.066;5.358;2023-09-07T08:00:39;19.20;99.90
44447;DHT22;30152;52.066;5.358;2023-09-07T08:03:13;19.10;99.90
44447;DHT22;30152;52.066;5.358;2023-09-07T08:05:38;18.70;99.90
44447;DHT22;30152;52.066;5.358;2023-09-07T08:08:05;19.60;99.90
44447;DHT22;30152;52.066;5.358;2023-09-07T08:10:36;19.50;99.90
44447;DHT22;30152;52.066;5.358;2023-09-07T08:13:03;19.80;99.90
44447;DHT22;30152;52.066;5.358;2023-09-07T08:17:55;20.40;99.90
44447;DHT22;30152;52.066;5.358;2023-09-07T08:20:21;20.60;99.90
44447;DHT22;30152;52.066;5.358;2023-09-07T08:22:47;20.40;99.90
44447;DHT22;30152;52.066;5.358;2023-09-07T08:25:13;20.60;99.90
44447;DHT22;30152;52.066;5.358;2023-09-07T08:27:42;21.00;99.90
44447;DHT22;30152;52.066;5.358;2023-09-07T08:30:13;20.80;99.90
44447;DHT22;30152;52.066;5.358;2023-09-07T08:32:41;21.30;99.90
44447;DHT22;30152;52.066;5.358;2023-09-07T08:35:09;20.90;99.90
44447;DHT22;30152;52.066;5.358;2023-09-07T08:37:38;21.60;99.90
44447;DHT22;30152;52.066;5.358;2023-09-07T08:40:04;21.70;99.90
44447;DHT22;30152;52.066;5.358;2023-09-07T08:45:00;21.80;99.90
44447;DHT22;30152;52.066;5.358;2023-09-07T08:47:28;21.90;99.90
44447;DHT22;30152;52.066;5.358;2023-09-07T08:50:04;22.10;99.90
44447;DHT22;30152;52.066;5.358;2023-09-07T08:52:32;22.70;99.90
44447;DHT22;30152;52.066;5.358;2023-09-07T08:54:57;22.50;99.90
44447;DHT22;30152;52.066;5.358;2023-09-07T09:12:07;22.90;99.90
44447;DHT22;30152;52.066;5.358;2023-09-07T09:19:32;23.30;99.90
44447;DHT22;30152;52.066;5.358;2023-09-07T09:26:50;23.40;99.80
44447;DHT22;30152;52.066;5.358;2023-09-07T09:29:16;24.00;99.90
44447;DHT22;30152;52.066;5.358;2023-09-07T09:31:41;23.90;99.90
44447;DHT22;30152;52.066;5.358;2023-09-07T09:34:08;23.80;99.60
44447;DHT22;30152;52.066;5.358;2023-09-07T09:36:35;24.10;99.80
44447;DHT22;30152;52.066;5.358;2023-09-07T09:41:30;24.00;99.70
44447;DHT22;30152;52.066;5.358;2023-09-07T09:43:57;23.90;98.60
44447;DHT22;30152;52.066;5.358;2023-09-07T09:46:24;24.20;99.80
44447;DHT22;30152;52.066;5.358;2023-09-07T09:48:51;23.90;99.00
44447;DHT22;30152;52.066;5.358;2023-09-07T09:51:18;24.20;98.70
44447;DHT22;30152;52.066;5.358;2023-09-07T09:53:44;25.50;98.50
44447;DHT22;30152;52.066;5.358;2023-09-07T09:58:37;24.00;98.20
44447;DHT22;30152;52.066;5.358;2023-09-07T10:01:04;24.50;98.80
44447;DHT22;30152;52.066;5.358;2023-09-07T10:03:44;24.20;98.40
44447;DHT22;30152;52.066;5.358;2023-09-07T10:06:24;24.60;98.90
44447;DHT22;30152;52.066;5.358;2023-09-07T10:09:06;24.50;98.70
44447;DHT22;30152;52.066;5.358;2023-09-07T10:11:34;25.00;97.60
44447;DHT22;30152;52.066;5.358;2023-09-07T10:14:01;24.70;97.40
44447;DHT22;30152;52.066;5.358;2023-09-07T10:16:44;25.00;96.80
44447;DHT22;30152;52.066;5.358;2023-09-07T10:19:23;25.80;97.00
44447;DHT22;30152;52.066;5.358;2023-09-07T10:21:50;25.10;96.60
44447;DHT22;30152;52.066;5.358;2023-09-07T10:24:33;24.90;96.60
44447;DHT22;30152;52.066;5.358;2023-09-07T10:27:08;25.80;96.90
44447;DHT22;30152;52.066;5.358;2023-09-07T10:29:52;25.00;96.80
44447;DHT22;30152;52.066;5.358;2023-09-07T10:32:18;25.30;96.60
44447;DHT22;30152;52.066;5.358;2023-09-07T10:37:10;25.10;95.80
44447;DHT22;30152;52.066;5.358;2023-09-07T10:39:42;25.20;96.00
44447;DHT22;30152;52.066;5.358;2023-09-07T10:42:24;25.70;95.80
44447;DHT22;30152;52.066;5.358;2023-09-07T10:44:50;25.40;95.40
44447;DHT22;30152;52.066;5.358;2023-09-07T10:52:08;25.70;95.50
44447;DHT22;30152;52.066;5.358;2023-09-07T10:57:08;25.60;93.90
44447;DHT22;30152;52.066;5.358;2023-09-07T11:02:06;25.80;93.60
44447;DHT22;30152;52.066;5.358;2023-09-07T11:11:50;26.60;92.60
44447;DHT22;30152;52.066;5.358;2023-09-07T11:19:10;26.50;91.40
44447;DHT22;30152;52.066;5.358;2023-09-07T11:21:35;26.60;91.40
44447;DHT22;30152;52.066;5.358;2023-09-07T11:24:01;26.50;91.50
44447;DHT22;30152;52.066;5.358;2023-09-07T11:26:40;26.40;91.90
44447;DHT22;30152;52.066;5.358;2023-09-07T11:29:05;26.40;92.10
44447;DHT22;30152;52.066;5.358;2023-09-07T11:38:52;26.80;90.20
44447;DHT22;30152;52.066;5.358;2023-09-07T11:48:36;27.10;90.90
44447;DHT22;30152;52.066;5.358;2023-09-07T11:51:02;26.90;90.60
44447;DHT22;30152;52.066;5.358;2023-09-07T11:53:27;27.00;91.00
44447;DHT22;30152;52.066;5.358;2023-09-07T11:55:53;27.00;91.60
44447;DHT22;30152;52.066;5.358;2023-09-07T11:58:19;26.80;91.10
44447;DHT22;30152;52.066;5.358;2023-09-07T12:00:44;26.80;91.80
44447;DHT22;30152;52.066;5.358;2023-09-07T12:03:10;27.10;92.10
44447;DHT22;30152;52.066;5.358;2023-09-07T12:05:35;26.60;90.90
44447;DHT22;30152;52.066;5.358;2023-09-07T12:08:03;26.80;90.70
44447;DHT22;30152;52.066;5.358;2023-09-07T12:12:55;26.30;90.80
44447;DHT22;30152;52.066;5.358;2023-09-07T12:15:20;27.30;91.40
44447;DHT22;30152;52.066;5.358;2023-09-07T12:17:46;27.50;90.80
44447;DHT22;30152;52.066;5.358;2023-09-07T12:20:13;27.30;90.10
44447;DHT22;30152;52.066;5.358;2023-09-07T12:22:39;27.40;90.10
44447;DHT22;30152;52.066;5.358;2023-09-07T12:25:06;28.20;89.50
44447;DHT22;30152;52.066;5.358;2023-09-07T12:27:33;27.40;87.80
44447;DHT22;30152;52.066;5.358;2023-09-07T12:29:59;27.40;89.40
44447;DHT22;30152;52.066;5.358;2023-09-07T12:34:51;26.90;86.10
44447;DHT22;30152;52.066;5.358;2023-09-07T12:37:19;27.40;85.90
44447;DHT22;30152;52.066;5.358;2023-09-07T12:39:44;27.30;85.90
44447;DHT22;30152;52.066;5.358;2023-09-07T12:44:36;27.60;82.90
44447;DHT22;30152;52.066;5.358;2023-09-07T12:47:01;28.40;82.60
44447;DHT22;30152;52.066;5.358;2023-09-07T12:49:27;27.60;82.70
44447;DHT22;30152;52.066;5.358;2023-09-07T12:51:52;28.40;84.50
44447;DHT22;30152;52.066;5.358;2023-09-07T12:54:18;27.70;83.20
44447;DHT22;30152;52.066;5.358;2023-09-07T12:56:44;27.60;85.30
44447;DHT22;30152;52.066;5.358;2023-09-07T12:59:10;27.60;84.10
44447;DHT22;30152;52.066;5.358;2023-09-07T13:01:35;27.70;83.70
44447;DHT22;30152;52.066;5.358;2023-09-07T13:04:01;27.60;83.80
44447;DHT22;30152;52.066;5.358;2023-09-07T13:06:27;27.80;84.10
44447;DHT22;30152;52.066;5.358;2023-09-07T13:08:52;27.70;84.00
44447;DHT22;30152;52.066;5.358;2023-09-07T13:16:10;28.10;84.80
44447;DHT22;30152;52.066;5.358;2023-09-07T13:21:03;28.40;83.50
44447;DHT22;30152;52.066;5.358;2023-09-07T13:23:29;27.30;82.60
44447;DHT22;30152;52.066;5.358;2023-09-07T13:25:55;27.60;84.30
44447;DHT22;30152;52.066;5.358;2023-09-07T13:28:21;27.50;83.70
44447;DHT22;30152;52.066;5.358;2023-09-07T13:30:47;27.50;84.30
44447;DHT22;30152;52.066;5.358;2023-09-07T13:33:12;27.70;84.80
44447;DHT22;30152;52.066;5.358;2023-09-07T13:35:38;27.60;83.90
44447;DHT22;30152;52.066;5.358;2023-09-07T13:38:05;27.30;82.50
44447;DHT22;30152;52.066;5.358;2023-09-07T13:40:31;27.40;84.00
44447;DHT22;30152;52.066;5.358;2023-09-07T13:42:56;27.90;83.90
44447;DHT22;30152;52.066;5.358;2023-09-07T13:45:22;27.70;84.30
44447;DHT22;30152;52.066;5.358;2023-09-07T13:47:48;27.70;85.50
44447;DHT22;30152;52.066;5.358;2023-09-07T13:50:13;27.80;84.30
44447;DHT22;30152;52.066;5.358;2023-09-07T13:52:39;27.70;84.20
44447;DHT22;30152;52.066;5.358;2023-09-07T13:55:05;27.60;84.60
44447;DHT22;30152;52.066;5.358;2023-09-07T13:57:32;27.80;83.20
44447;DHT22;30152;52.066;5.358;2023-09-07T13:59:58;27.80;84.50
44447;DHT22;30152;52.066;5.358;2023-09-07T14:02:23;27.70;83.80
44447;DHT22;30152;52.066;5.358;2023-09-07T14:04:49;27.60;83.20
44447;DHT22;30152;52.066;5.358;2023-09-07T14:07:15;28.10;83.40
44447;DHT22;30152;52.066;5.358;2023-09-07T14:09:40;27.90;81.30
44447;DHT22;30152;52.066;5.358;2023-09-07T14:12:06;28.00;82.20
44447;DHT22;30152;52.066;5.358;2023-09-07T14:14:32;27.80;82.30
44447;DHT22;30152;52.066;5.358;2023-09-07T14:16:57;27.80;82.70
44447;DHT22;30152;52.066;5.358;2023-09-07T14:19:23;27.70;82.80
44447;DHT22;30152;52.066;5.358;2023-09-07T14:21:49;27.60;82.80
44447;DHT22;30152;52.066;5.358;2023-09-07T14:24:14;28.00;82.20
44447;DHT22;30152;52.066;5.358;2023-09-07T14:26:40;27.70;81.20
44447;DHT22;30152;52.066;5.358;2023-09-07T14:29:05;27.90;81.70
44447;DHT22;30152;52.066;5.358;2023-09-07T14:33:57;27.90;81.20
44447;DHT22;30152;52.066;5.358;2023-09-07T14:38:48;31.00;83.60
44447;DHT22;30152;52.066;5.358;2023-09-07T14:41:14;28.00;80.70
44447;DHT22;30152;52.066;5.358;2023-09-07T14:43:48;27.90;80.20
44447;DHT22;30152;52.066;5.358;2023-09-07T14:46:14;28.00;81.40
44447;DHT22;30152;52.066;5.358;2023-09-07T14:48:41;27.80;82.80
44447;DHT22;30152;52.066;5.358;2023-09-07T14:51:06;27.60;82.20
44447;DHT22;30152;52.066;5.358;2023-09-07T14:55:58;27.80;83.40
44447;DHT22;30152;52.066;5.358;2023-09-07T14:58:23;27.80;83.50
44447;DHT22;30152;52.066;5.358;2023-09-07T15:00:49;27.40;83.20
44447;DHT22;30152;52.066;5.358;2023-09-07T15:03:17;27.70;82.90
44447;DHT22;30152;52.066;5.358;2023-09-07T15:05:43;27.80;84.00
44447;DHT22;30152;52.066;5.358;2023-09-07T15:08:08;28.00;83.20
44447;DHT22;30152;52.066;5.358;2023-09-07T15:10:34;27.70;83.60
44447;DHT22;30152;52.066;5.358;2023-09-07T15:13:00;27.90;83.70
44447;DHT22;30152;52.066;5.358;2023-09-07T15:15:30;28.60;83.70
44447;DHT22;30152;52.066;5.358;2023-09-07T15:17:59;27.80;84.00
44447;DHT22;30152;52.066;5.358;2023-09-07T15:20:25;27.30;82.40
44447;DHT22;30152;52.066;5.358;2023-09-07T15:22:51;27.70;83.40
44447;DHT22;30152;52.066;5.358;2023-09-07T15:27:45;28.10;84.40
44447;DHT22;30152;52.066;5.358;2023-09-07T15:30:12;27.70;84.50
44447;DHT22;30152;52.066;5.358;2023-09-07T15:32:38;27.60;84.40
44447;DHT22;30152;52.066;5.358;2023-09-07T15:35:04;27.50;83.80
44447;DHT22;30152;52.066;5.358;2023-09-07T15:37:30;27.60;85.40
44447;DHT22;30152;52.066;5.358;2023-09-07T15:39:55;27.70;85.30
44447;DHT22;30152;52.066;5.358;2023-09-07T15:44:47;27.00;86.20
44447;DHT22;30152;52.066;5.358;2023-09-07T15:47:12;27.40;86.40
44447;DHT22;30152;52.066;5.358;2023-09-07T15:49:38;27.80;86.90
44447;DHT22;30152;52.066;5.358;2023-09-07T15:52:06;27.10;87.40
44447;DHT22;30152;52.066;5.358;2023-09-07T15:54:31;27.70;88.30
44447;DHT22;30152;52.066;5.358;2023-09-07T15:59:23;27.20;88.50
44447;DHT22;30152;52.066;5.358;2023-09-07T16:01:48;27.20;88.80
44447;DHT22;30152;52.066;5.358;2023-09-07T16:04:15;26.90;87.80
44447;DHT22;30152;52.066;5.358;2023-09-07T16:06:40;27.30;88.50
44447;DHT22;30152;52.066;5.358;2023-09-07T16:09:06;27.00;88.70
44447;DHT22;30152;52.066;5.358;2023-09-07T16:11:31;27.40;87.60
44447;DHT22;30152;52.066;5.358;2023-09-07T16:13:57;27.50;87.60
44447;DHT22;30152;52.066;5.358;2023-09-07T16:16:23;27.30;89.50
44447;DHT22;30152;52.066;5.358;2023-09-07T16:18:49;27.10;88.80
44447;DHT22;30152;52.066;5.358;2023-09-07T16:21:15;27.10;87.90
44447;DHT22;30152;52.066;5.358;2023-09-07T16:26:11;27.40;88.80
44447;DHT22;30152;52.066;5.358;2023-09-07T16:28:36;26.90;89.00
44447;DHT22;30152;52.066;5.358;2023-09-07T16:31:02;26.50;89.90
44447;DHT22;30152;52.066;5.358;2023-09-07T16:33:27;26.80;89.40
44447;DHT22;30152;52.066;5.358;2023-09-07T16:35:53;26.30;89.80
44447;DHT22;30152;52.066;5.358;2023-09-07T16:38:22;27.00;89.90
44447;DHT22;30152;52.066;5.358;2023-09-07T16:40:48;26.90;90.30
44447;DHT22;30152;52.066;5.358;2023-09-07T16:45:40;26.30;90.40
44447;DHT22;30152;52.066;5.358;2023-09-07T16:50:31;26.30;91.60
44447;DHT22;30152;52.066;5.358;2023-09-07T16:52:57;25.90;91.80
44447;DHT22;30152;52.066;5.358;2023-09-07T16:55:25;26.30;92.80
44447;DHT22;30152;52.066;5.358;2023-09-07T16:57:50;26.20;93.70
44447;DHT22;30152;52.066;5.358;2023-09-07T17:00:16;26.10;94.30
44447;DHT22;30152;52.066;5.358;2023-09-07T17:02:42;25.80;94.30
44447;DHT22;30152;52.066;5.358;2023-09-07T17:05:07;25.30;94.90
44447;DHT22;30152;52.066;5.358;2023-09-07T17:07:35;25.50;95.60
44447;DHT22;30152;52.066;5.358;2023-09-07T17:10:01;25.30;96.10
44447;DHT22;30152;52.066;5.358;2023-09-07T17:17:19;25.10;98.60
44447;DHT22;30152;52.066;5.358;2023-09-07T17:22:13;24.90;99.90
44447;DHT22;30152;52.066;5.358;2023-09-07T17:34:24;24.10;99.90
44447;DHT22;30152;52.066;5.358;2023-09-07T17:39:16;24.10;99.90
44447;DHT22;30152;52.066;5.358;2023-09-07T17:41:41;24.10;99.90
44447;DHT22;30152;52.066;5.358;2023-09-07T17:44:07;23.20;99.90
44447;DHT22;30152;52.066;5.358;2023-09-07T17:49:03;23.90;99.90
44447;DHT22;30152;52.066;5.358;2023-09-07T17:51:29;23.20;99.90
44447;DHT22;30152;52.066;5.358;2023-09-07T17:53:54;23.40;99.90
44447;DHT22;30152;52.066;5.358;2023-09-07T17:56:23;23.20;99.90
44447;DHT22;30152;52.066;5.358;2023-09-07T18:01:16;22.60;99.90
44447;DHT22;30152;52.066;5.358;2023-09-07T18:03:42;23.20;99.90
44447;DHT22;30152;52.066;5.358;2023-09-07T18:06:08;23.30;99.90
44447;DHT22;30152;52.066;5.358;2023-09-07T18:08:34;23.00;99.90
44447;DHT22;30152;52.066;5.358;2023-09-07T18:11:01;22.80;99.90
44447;DHT22;30152;52.066;5.358;2023-09-07T18:13:26;22.50;99.90
44447;DHT22;30152;52.066;5.358;2023-09-07T18:15:53;22.50;99.90
44447;DHT22;30152;52.066;5.358;2023-09-07T18:18:18;22.10;99.90
44447;DHT22;30152;52.066;5.358;2023-09-07T18:20:44;22.50;99.90
44447;DHT22;30152;52.066;5.358;2023-09-07T18:23:13;22.50;99.90
44447;DHT22;30152;52.066;5.358;2023-09-07T18:25:39;22.90;99.90
44447;DHT22;30152;52.066;5.358;2023-09-07T18:28:07;21.80;99.90
44447;DHT22;30152;52.066;5.358;2023-09-07T18:30:33;21.70;99.90
44447;DHT22;30152;52.066;5.358;2023-09-07T18:37:54;21.20;99.90
44447;DHT22;30152;52.066;5.358;2023-09-07T18:40:20;21.90;99.90
44447;DHT22;30152;52.066;5.358;2023-09-07T18:42:49;21.40;99.90
44447;DHT22;30152;52.066;5.358;2023-09-07T18:45:14;21.10;99.90
44447;DHT22;30152;52.066;5.358;2023-09-07T18:47:43;20.70;99.90
44447;DHT22;30152;52.066;5.358;2023-09-07T18:52:35;20.80;99.90
44447;DHT22;30152;52.066;5.358;2023-09-07T18:55:02;21.10;99.90
44447;DHT22;30152;52.066;5.358;2023-09-07T18:59:53;20.90;99.90
44447;DHT22;30152;52.066;5.358;2023-09-07T19:02:19;21.10;99.90
44447;DHT22;30152;52.066;5.358;2023-09-07T19:04:44;20.80;99.90
44447;DHT22;30152;52.066;5.358;2023-09-07T19:07:10;21.00;99.90
44447;DHT22;30152;52.066;5.358;2023-09-07T19:12:05;20.10;99.90
44447;DHT22;30152;52.066;5.358;2023-09-07T19:14:31;20.60;99.90
44447;DHT22;30152;52.066;5.358;2023-09-07T19:19:22;20.10;99.90
44447;DHT22;30152;52.066;5.358;2023-09-07T19:21:48;20.60;99.90
44447;DHT22;30152;52.066;5.358;2023-09-07T19:24:14;20.70;99.90
44447;DHT22;30152;52.066;5.358;2023-09-07T19:26:40;20.50;99.90
44447;DHT22;30152;52.066;5.358;2023-09-07T19:29:08;19.80;99.90
44447;DHT22;30152;52.066;5.358;2023-09-07T19:31:34;20.20;99.90
44447;DHT22;30152;52.066;5.358;2023-09-07T19:34:01;20.30;99.90
44447;DHT22;30152;52.066;5.358;2023-09-07T19:36:28;20.00;99.90
44447;DHT22;30152;52.066;5.358;2023-09-07T19:38:55;19.40;99.90
44447;DHT22;30152;52.066;5.358;2023-09-07T19:41:22;19.60;99.90
44447;DHT22;30152;52.066;5.358;2023-09-07T19:43:48;20.10;99.90
44447;DHT22;30152;52.066;5.358;2023-09-07T19:46:15;18.90;99.90
44447;DHT22;30152;52.066;5.358;2023-09-07T19:48:41;20.10;99.90
44447;DHT22;30152;52.066;5.358;2023-09-07T19:51:10;20.30;99.90
44447;DHT22;30152;52.066;5.358;2023-09-07T19:53:36;20.00;99.90
44447;DHT22;30152;52.066;5.358;2023-09-07T19:56:09;20.10;99.90
44447;DHT22;30152;52.066;5.358;2023-09-07T20:01:01;19.90;99.90
44447;DHT22;30152;52.066;5.358;2023-09-07T20:08:19;19.90;99.90
44447;DHT22;30152;52.066;5.358;2023-09-07T20:10:45;19.60;99.90
44447;DHT22;30152;52.066;5.358;2023-09-07T20:15:37;19.00;99.90
44447;DHT22;30152;52.066;5.358;2023-09-07T20:18:03;19.30;99.90
44447;DHT22;30152;52.066;5.358;2023-09-07T20:27:47;19.60;99.90
44447;DHT22;30152;52.066;5.358;2023-09-07T20:30:13;19.50;99.90
44447;DHT22;30152;52.066;5.358;2023-09-07T20:32:40;19.10;99.90
44447;DHT22;30152;52.066;5.358;2023-09-07T20:37:31;18.90;99.90
44447;DHT22;30152;52.066;5.358;2023-09-07T20:47:15;18.80;99.90
44447;DHT22;30152;52.066;5.358;2023-09-07T20:49:41;19.10;99.90
44447;DHT22;30152;52.066;5.358;2023-09-07T20:52:06;19.10;99.90
44447;DHT22;30152;52.066;5.358;2023-09-07T20:59:27;19.00;99.90
44447;DHT22;30152;52.066;5.358;2023-09-07T21:04:19;18.30;99.90
44447;DHT22;30152;52.066;5.358;2023-09-07T21:09:12;18.60;99.90
44447;DHT22;30152;52.066;5.358;2023-09-07T21:11:41;18.50;99.90
44447;DHT22;30152;52.066;5.358;2023-09-07T21:14:07;18.90;99.90
44447;DHT22;30152;52.066;5.358;2023-09-07T21:18:58;18.70;99.90
44447;DHT22;30152;52.066;5.358;2023-09-07T21:26:15;18.30;99.90
44447;DHT22;30152;52.066;5.358;2023-09-07T21:28:41;18.50;99.90
